createdAt,value
2023-05-18T00:01:05.932Z,101212.66
2023-05-18T00:03:33.831Z,101211.84
2023-05-18T00:06:04.580Z,101190.00
2023-05-18T00:08:34.026Z,101204.94
2023-05-18T00:11:01.783Z,101205.09
2023-05-18T00:13:28.362Z,101197.34
2023-05-18T00:15:55.029Z,101198.97
2023-05-18T00:18:23.923Z,101188.06
2023-05-18T00:21:00.615Z,101192.38
2023-05-18T00:23:30.831Z,101201.44
2023-05-18T00:26:01.350Z,101197.34
2023-05-18T00:28:28.134Z,101191.78
2023-05-18T00:30:54.804Z,101196.44
2023-05-18T00:33:21.746Z,101189.09
2023-05-18T00:35:48.399Z,101192.88
2023-05-18T00:38:17.834Z,101204.47
2023-05-18T00:40:44.570Z,101188.59
2023-05-18T00:43:12.333Z,101204.47
2023-05-18T00:45:39.534Z,101200.19
2023-05-18T00:48:06.497Z,101202.03
2023-05-18T00:50:33.274Z,101201.72
2023-05-18T00:52:59.979Z,101191.63
2023-05-18T00:55:28.494Z,101196.84
2023-05-18T00:57:56.637Z,101184.50
2023-05-18T01:00:23.863Z,101191.03
2023-05-18T01:02:51.062Z,101194.09
2023-05-18T01:05:19.811Z,101193.81
2023-05-18T01:07:46.426Z,101191.63
2023-05-18T01:10:14.031Z,101196.84
2023-05-18T01:12:49.554Z,101188.88
2023-05-18T01:15:32.961Z,101188.63
2023-05-18T01:18:21.798Z,101200.19
2023-05-18T01:21:25.504Z,101196.88
2023-05-18T01:24:04.222Z,101189.44
2023-05-18T01:26:37.489Z,101198.75
2023-05-18T01:29:06.988Z,101190.34
2023-05-18T01:31:33.903Z,101189.75
2023-05-18T01:34:08.286Z,101187.81
2023-05-18T01:36:35.115Z,101200.19
2023-05-18T01:39:02.124Z,101196.88
2023-05-18T01:41:29.606Z,101197.47
2023-05-18T01:43:59.066Z,101192.78
2023-05-18T01:46:32.247Z,101188.09
2023-05-18T01:49:02.261Z,101186.25
2023-05-18T01:51:33.814Z,101189.31
2023-05-18T01:54:06.261Z,101191.16
2023-05-18T01:56:33.542Z,101192.56
2023-05-18T01:59:00.179Z,101183.28
2023-05-18T02:01:26.872Z,101182.75
2023-05-18T02:03:53.695Z,101187.16
2023-05-18T02:06:21.034Z,101178.69
2023-05-18T02:08:47.764Z,101182.75
2023-05-18T02:11:14.490Z,101169.31
2023-05-18T02:13:41.319Z,101180.53
2023-05-18T02:16:08.176Z,101170.34
2023-05-18T02:18:38.506Z,101169.53
2023-05-18T02:21:07.837Z,101163.81
2023-05-18T02:23:34.444Z,101173.41
2023-05-18T02:26:01.544Z,101168.72
2023-05-18T02:28:28.178Z,101170.34
2023-05-18T02:30:54.774Z,101161.34
2023-05-18T02:33:26.125Z,101166.03
2023-05-18T02:35:53.313Z,101165.22
2023-05-18T02:38:20.252Z,101159.25
2023-05-18T02:40:46.929Z,101169.31
2023-05-18T02:43:15.516Z,101159.25
2023-05-18T02:45:42.326Z,101170.72
2023-05-18T02:48:09.070Z,101158.69
2023-05-18T02:50:35.676Z,101166.63
2023-05-18T02:53:02.317Z,101168.50
2023-05-18T02:55:29.139Z,101172.88
2023-05-18T02:58:13.700Z,101154.59
2023-05-18T03:01:03.500Z,101175.94
2023-05-18T03:03:39.417Z,101175.41
2023-05-18T03:06:06.172Z,101166.38
2023-05-18T03:08:32.965Z,101172.94
2023-05-18T03:10:59.635Z,101173.78
2023-05-18T03:13:26.323Z,101171.88
2023-05-18T03:15:53.065Z,101161.47
2023-05-18T03:18:25.110Z,101171.31
2023-05-18T03:20:52.063Z,101175.41
2023-05-18T03:23:19.980Z,101166.34
2023-05-18T03:25:53.565Z,101176.22
2023-05-18T03:28:21.342Z,101174.50
2023-05-18T03:30:48.760Z,101174.00
2023-05-18T03:33:15.528Z,101176.78
2023-05-18T03:35:42.496Z,101178.44
2023-05-18T03:38:09.354Z,101163.50
2023-05-18T03:40:38.527Z,101186.16
2023-05-18T03:43:05.355Z,101182.88
2023-05-18T03:45:33.032Z,101184.09
2023-05-18T03:47:59.745Z,101186.53
2023-05-18T03:50:26.647Z,101195.09
2023-05-18T03:52:53.535Z,101194.78
2023-05-18T03:55:21.467Z,101187.94
2023-05-18T03:57:48.661Z,101185.72
2023-05-18T04:00:15.775Z,101193.16
2023-05-18T04:02:45.532Z,101191.28
2023-05-18T04:05:15.833Z,101202.22
2023-05-18T04:07:46.673Z,101185.88
2023-05-18T04:10:13.553Z,101209.56
2023-05-18T04:12:42.320Z,101210.97
2023-05-18T04:15:10.261Z,101206.09
2023-05-18T04:17:37.012Z,101212.41
2023-05-18T04:20:13.043Z,101219.22
2023-05-18T04:22:46.464Z,101221.16
2023-05-18T04:25:16.468Z,101209.94
2023-05-18T04:27:43.732Z,101214.84
2023-05-18T04:30:11.797Z,101215.97
2023-05-18T04:32:43.016Z,101207.78
2023-05-18T04:35:10.985Z,101207.31
2023-05-18T04:37:40.331Z,101222.88
2023-05-18T04:40:13.788Z,101225.03
2023-05-18T04:42:48.295Z,101233.59
2023-05-18T04:45:20.339Z,101225.63
2023-05-18T04:47:53.916Z,101222.09
2023-05-18T04:50:23.605Z,101230.53
2023-05-18T04:52:50.756Z,101222.31
2023-05-18T04:55:25.769Z,101228.09
2023-05-18T04:57:56.884Z,101224.50
2023-05-18T05:00:29.184Z,101228.59
2023-05-18T05:02:56.472Z,101227.19
2023-05-18T05:05:23.381Z,101231.56
2023-05-18T05:07:51.443Z,101241.16
2023-05-18T05:10:18.932Z,101231.78
2023-05-18T05:12:47.430Z,101238.41
2023-05-18T05:15:15.889Z,101236.19
2023-05-18T05:17:42.584Z,101226.38
2023-05-18T05:20:09.452Z,101239.53
2023-05-18T05:22:36.975Z,101234.84
2023-05-18T05:25:06.301Z,101234.25
2023-05-18T05:27:33.573Z,101239.22
2023-05-18T05:30:00.256Z,101235.88
2023-05-18T05:32:26.969Z,101231.50
2023-05-18T05:34:54.744Z,101240.56
2023-05-18T05:37:21.705Z,101228.53
2023-05-18T05:39:49.534Z,101232.38
2023-05-18T05:42:17.981Z,101231.47
2023-05-18T05:44:44.633Z,101240.72
2023-05-18T05:47:14.217Z,101241.66
2023-05-18T05:49:42.194Z,101239.19
2023-05-18T05:52:08.855Z,101241.13
2023-05-18T05:54:38.551Z,101235.13
2023-05-18T05:57:05.417Z,101244.06
2023-05-18T05:59:32.127Z,101240.72
2023-05-18T06:02:02.681Z,101242.00
2023-05-18T06:04:29.559Z,101234.81
2023-05-18T06:06:56.771Z,101243.50
2023-05-18T06:09:23.557Z,101245.16
2023-05-18T06:11:50.348Z,101236.38
2023-05-18T06:14:17.646Z,101230.56
2023-05-18T06:16:44.897Z,101237.66
2023-05-18T06:19:11.561Z,101224.72
2023-05-18T06:21:38.319Z,101230.75
2023-05-18T06:24:05.550Z,101231.78
2023-05-18T06:26:41.539Z,101241.03
2023-05-18T06:29:26.606Z,101248.69
2023-05-18T06:32:28.779Z,101247.56
2023-05-18T06:34:57.529Z,101246.97
2023-05-18T06:37:26.989Z,101251.66
2023-05-18T06:39:54.028Z,101256.56
2023-05-18T06:42:20.864Z,101257.16
2023-05-18T06:44:52.888Z,101260.13
2023-05-18T06:47:22.923Z,101252.13
2023-05-18T06:49:49.809Z,101256.00
2023-05-18T06:52:16.696Z,101265.06
2023-05-18T06:54:44.956Z,101255.69
2023-05-18T06:57:11.689Z,101255.63
2023-05-18T06:59:38.512Z,101258.97
2023-05-18T07:02:06.519Z,101249.09
2023-05-18T07:04:33.447Z,101253.97
2023-05-18T07:07:05.773Z,101256.22
2023-05-18T07:09:32.437Z,101253.16
2023-05-18T07:11:59.118Z,101255.69
2023-05-18T07:14:28.851Z,101250.94
2023-05-18T07:16:55.707Z,101252.88
2023-05-18T07:19:22.353Z,101230.47
2023-05-18T07:21:49.050Z,101252.88
2023-05-18T07:24:15.858Z,101231.50
2023-05-18T07:26:45.449Z,101251.16
2023-05-18T07:29:18.056Z,101238.00
2023-05-18T07:31:44.778Z,101244.03
2023-05-18T07:34:11.479Z,101242.91
2023-05-18T07:36:38.112Z,101251.16
2023-05-18T07:39:04.710Z,101245.34
2023-05-18T07:41:31.756Z,101246.25
2023-05-18T07:43:58.333Z,101245.44
2023-05-18T07:46:24.984Z,101236.88
2023-05-18T07:48:51.636Z,101232.81
2023-05-18T07:51:18.378Z,101244.69
2023-05-18T07:53:48.204Z,101243.88
2023-05-18T07:56:14.939Z,101253.47
2023-05-18T07:58:41.564Z,101241.41
2023-05-18T08:01:08.241Z,101238.97
2023-05-18T08:03:34.927Z,101250.56
2023-05-18T08:06:01.664Z,101250.56
2023-05-18T08:08:28.825Z,101242.38
2023-05-18T08:10:55.492Z,101242.31
2023-05-18T08:13:22.180Z,101244.47
2023-05-18T08:15:56.100Z,101235.41
2023-05-18T08:18:30.170Z,101238.38
2023-05-18T08:20:56.824Z,101230.63
2023-05-18T08:23:26.652Z,101214.72
2023-05-18T08:25:53.423Z,101219.63
2023-05-18T08:28:20.175Z,101240.66
2023-05-18T08:30:46.820Z,101232.13
2023-05-18T08:33:13.703Z,101231.00
2023-05-18T08:35:40.468Z,101231.53
2023-05-18T08:38:07.108Z,101224.09
2023-05-18T08:40:39.251Z,101217.84
2023-05-18T08:43:13.813Z,101226.63
2023-05-18T08:45:52.237Z,101222.22
2023-05-18T08:48:19.026Z,101218.75
2023-05-18T08:50:45.861Z,101221.72
2023-05-18T08:53:12.594Z,101218.44
2023-05-18T08:55:39.925Z,101212.19
2023-05-18T08:58:07.724Z,101213.53
2023-05-18T09:00:36.422Z,101214.66
2023-05-18T09:03:04.538Z,101210.19
2023-05-18T09:05:33.961Z,101199.78
2023-05-18T09:08:00.935Z,101202.13
2023-05-18T09:10:27.610Z,101201.94
2023-05-18T09:12:54.258Z,101209.66
2023-05-18T09:15:25.503Z,101193.16
2023-05-18T09:17:52.271Z,101186.00
2023-05-18T09:20:19.547Z,101188.28
2023-05-18T09:22:46.288Z,101196.44
2023-05-18T09:25:13.047Z,101194.47
2023-05-18T09:27:39.719Z,101185.63
2023-05-18T09:30:10.722Z,101190.31
2023-05-18T09:32:37.592Z,101189.72
2023-05-18T09:35:08.237Z,101171.22
2023-05-18T09:37:35.023Z,101185.25
2023-05-18T09:40:05.018Z,101184.22
2023-05-18T09:42:42.651Z,101188.53
2023-05-18T09:45:20.603Z,101181.38
2023-05-18T09:47:47.360Z,101178.13
2023-05-18T09:50:14.177Z,101183.63
2023-05-18T09:52:44.553Z,101183.03
2023-05-18T09:55:11.896Z,101176.41
2023-05-18T09:57:40.774Z,101189.56
2023-05-18T10:00:11.001Z,101179.34
2023-05-18T10:02:41.608Z,101176.91
2023-05-18T10:05:23.875Z,101185.06
2023-05-18T10:07:51.106Z,101172.44
2023-05-18T10:10:19.859Z,101174.06
2023-05-18T10:12:46.645Z,101164.34
2023-05-18T10:15:17.389Z,101154.47
2023-05-18T10:17:45.267Z,101175.19
2023-05-18T10:20:12.307Z,101176.81
2023-05-18T10:22:38.976Z,101176.81
2023-05-18T10:25:06.956Z,101182.31
2023-05-18T10:27:35.441Z,101181.72
2023-05-18T10:30:05.129Z,101169.69
2023-05-18T10:32:31.849Z,101171.84
2023-05-18T10:34:59.030Z,101168.06
2023-05-18T10:37:26.555Z,101172.88
2023-05-18T10:39:53.286Z,101171.72
2023-05-18T10:42:19.949Z,101170.31
2023-05-18T10:44:46.533Z,101140.34
2023-05-18T10:47:14.558Z,101156.34
2023-05-18T10:49:43.058Z,101169.13
2023-05-18T10:52:10.291Z,101163.28
2023-05-18T10:54:36.894Z,101165.53
2023-05-18T10:57:06.520Z,101164.09
2023-05-18T10:59:36.558Z,101154.81
2023-05-18T11:02:03.406Z,101146.34
2023-05-18T11:04:33.157Z,101166.50
2023-05-18T11:06:59.972Z,101156.97
2023-05-18T11:09:26.857Z,101146.34
2023-05-18T11:11:57.507Z,101163.78
2023-05-18T11:14:31.772Z,101148.41
2023-05-18T11:17:20.251Z,101149.41
2023-05-18T11:20:05.769Z,101140.19
2023-05-18T11:22:47.838Z,101141.22
2023-05-18T11:25:34.745Z,101145.09
2023-05-18T11:28:03.337Z,101141.38
2023-05-18T11:30:50.365Z,101145.69
2023-05-18T11:33:27.697Z,101134.91
2023-05-18T11:35:58.272Z,101140.53
2023-05-18T11:38:50.796Z,101138.19
2023-05-18T11:41:44.356Z,101146.34
2023-05-18T11:44:18.609Z,101132.16
2023-05-18T11:47:04.340Z,101133.56
2023-05-18T11:49:40.208Z,101137.94
2023-05-18T11:52:12.613Z,101136.19
2023-05-18T11:55:00.773Z,101133.16
2023-05-18T11:57:39.276Z,101139.69
2023-05-18T12:00:10.632Z,101142.16
2023-05-18T12:02:42.908Z,101141.50
2023-05-18T12:05:09.884Z,101129.06
2023-05-18T12:07:36.755Z,101125.00
2023-05-18T12:10:06.675Z,101131.22
2023-05-18T12:12:34.001Z,101119.38
2023-05-18T12:15:05.454Z,101120.13
2023-05-18T12:17:42.539Z,101120.94
2023-05-18T12:20:11.900Z,101126.63
2023-05-18T12:22:42.606Z,101107.66
2023-05-18T12:25:09.690Z,101115.31
2023-05-18T12:27:47.865Z,101094.78
2023-05-18T12:30:22.020Z,101106.34
2023-05-18T12:32:56.039Z,101101.31
2023-05-18T12:35:25.982Z,101086.31
2023-05-18T12:37:52.728Z,101089.69
2023-05-18T12:40:19.818Z,101086.63
2023-05-18T12:42:56.658Z,101082.94
2023-05-18T12:45:24.963Z,101072.34
2023-05-18T12:47:55.312Z,101100.19
2023-05-18T12:50:23.517Z,101088.66
2023-05-18T12:52:50.348Z,101073.84
2023-05-18T12:55:25.160Z,101081.09
2023-05-18T12:58:02.501Z,101078.81
2023-05-18T13:00:36.192Z,101060.03
2023-05-18T13:03:12.847Z,101069.88
2023-05-18T13:05:42.440Z,101065.97
2023-05-18T13:08:09.456Z,101063.75
2023-05-18T13:10:36.183Z,101071.50
2023-05-18T13:13:05.546Z,101073.00
2023-05-18T13:15:38.853Z,101069.63
2023-05-18T13:18:10.552Z,101070.25
2023-05-18T13:20:44.982Z,101066.88
2023-05-18T13:23:13.802Z,101036.56
2023-05-18T13:25:40.684Z,101068.38
2023-05-18T13:28:07.416Z,101056.03
2023-05-18T13:30:34.134Z,101060.59
2023-05-18T13:33:00.853Z,101052.34
2023-05-18T13:35:27.597Z,101061.59
2023-05-18T13:37:54.253Z,101056.94
2023-05-18T13:40:21.374Z,101055.97
2023-05-18T13:42:48.058Z,101053.84
2023-05-18T13:45:16.264Z,101046.19
2023-05-18T13:47:43.495Z,101052.59
2023-05-18T13:50:10.610Z,101049.31
2023-05-18T13:52:37.614Z,101057.50
2023-05-18T13:55:04.688Z,101055.22
2023-05-18T13:57:32.318Z,101042.56
2023-05-18T13:59:59.640Z,101030.09
2023-05-18T14:02:26.659Z,101030.72
2023-05-18T14:04:53.656Z,101028.03
2023-05-18T14:07:20.371Z,101024.78
2023-05-18T14:09:46.972Z,101021.69
2023-05-18T14:12:13.596Z,101019.88
2023-05-18T14:14:41.148Z,101023.16
2023-05-18T14:17:09.846Z,101016.16
2023-05-18T14:19:37.989Z,101023.81
2023-05-18T14:22:04.916Z,101015.53
2023-05-18T14:24:31.822Z,101017.00
2023-05-18T14:26:58.515Z,101014.09
2023-05-18T14:29:25.168Z,101009.38
2023-05-18T14:31:51.841Z,101013.47
2023-05-18T14:34:18.573Z,101007.44
2023-05-18T14:36:45.278Z,101001.31
2023-05-18T14:39:12.090Z,100996.75
2023-05-18T14:41:38.748Z,100994.28
2023-05-18T14:44:08.557Z,101004.88
2023-05-18T14:46:35.913Z,100993.53
2023-05-18T14:49:02.806Z,100988.81
2023-05-18T14:51:29.467Z,100992.41
2023-05-18T14:53:56.164Z,100976.63
2023-05-18T14:56:22.905Z,100985.88
2023-05-18T14:58:49.618Z,100991.59
2023-05-18T15:01:16.317Z,100991.06
2023-05-18T15:03:43.116Z,100996.28
2023-05-18T15:06:09.831Z,100992.41
2023-05-18T15:08:36.500Z,100967.34
2023-05-18T15:11:03.134Z,100984.44
2023-05-18T15:13:29.738Z,100989.63
2023-05-18T15:15:56.673Z,100986.06
2023-05-18T15:18:23.359Z,100975.22
2023-05-18T15:20:50.097Z,100982.16
2023-05-18T15:23:16.837Z,100984.44
2023-05-18T15:25:43.553Z,100978.41
2023-05-18T15:28:11.254Z,100978.63
2023-05-18T15:30:38.203Z,100980.91
2023-05-18T15:33:06.279Z,100979.91
2023-05-18T15:35:34.793Z,100968.88
2023-05-18T15:38:01.729Z,100977.28
2023-05-18T15:40:28.665Z,100976.47
2023-05-18T15:42:55.391Z,100969.00
2023-05-18T15:45:22.079Z,100981.78
2023-05-18T15:47:48.828Z,100975.75
2023-05-18T15:50:15.549Z,100974.66
2023-05-18T15:52:42.207Z,100962.50
2023-05-18T15:55:09.300Z,100975.66
2023-05-18T15:57:36.254Z,100981.78
2023-05-18T16:00:03.981Z,100975.66
2023-05-18T16:02:38.436Z,100974.03
2023-05-18T16:05:05.780Z,100965.09
2023-05-18T16:07:33.150Z,100961.88
2023-05-18T16:10:00.101Z,100970.13
2023-05-18T16:12:27.014Z,100967.84
2023-05-18T16:14:54.151Z,100966.75
2023-05-18T16:17:20.940Z,100977.59
2023-05-18T16:19:47.687Z,100978.06
2023-05-18T16:22:14.415Z,100978.88
2023-05-18T16:24:41.122Z,100981.16
2023-05-18T16:27:07.865Z,100973.50
2023-05-18T16:29:34.819Z,100974.31
2023-05-18T16:32:01.693Z,100980.03
2023-05-18T16:34:28.491Z,100973.81
2023-05-18T16:36:56.147Z,100975.66
2023-05-18T16:39:23.683Z,100976.56
2023-05-18T16:41:51.534Z,100976.47
2023-05-18T16:44:18.155Z,100980.03
2023-05-18T16:46:44.941Z,100987.47
2023-05-18T16:49:11.667Z,100988.28
2023-05-18T16:51:38.337Z,100969.75
2023-05-18T16:54:06.190Z,100984.41
2023-05-18T16:56:33.004Z,100984.41
2023-05-18T16:58:59.608Z,100985.25
2023-05-18T17:01:28.770Z,100981.16
2023-05-18T17:03:56.126Z,100991.56
2023-05-18T17:06:22.973Z,100992.00
2023-05-18T17:08:57.176Z,100994.31
2023-05-18T17:11:26.106Z,100987.16
2023-05-18T17:13:52.790Z,100989.91
2023-05-18T17:16:21.595Z,100995.75
2023-05-18T17:18:48.764Z,100987.31
2023-05-18T17:21:15.976Z,100991.06
2023-05-18T17:23:42.660Z,100986.16
2023-05-18T17:26:09.340Z,100999.84
2023-05-18T17:28:36.371Z,100994.63
2023-05-18T17:31:03.890Z,100991.25
2023-05-18T17:33:31.369Z,100988.81
2023-05-18T17:35:58.048Z,100988.81
2023-05-18T17:38:24.683Z,100989.91
2023-05-18T17:40:51.344Z,100994.81
2023-05-18T17:43:18.011Z,100987.38
2023-05-18T17:45:44.711Z,100983.28
2023-05-18T17:48:11.445Z,100989.81
2023-05-18T17:50:39.073Z,100984.63
2023-05-18T17:53:05.984Z,100991.06
2023-05-18T17:55:32.913Z,100976.28
2023-05-18T17:58:01.023Z,100989.53
2023-05-18T18:00:27.810Z,100987.56
2023-05-18T18:02:55.291Z,100984.00
2023-05-18T18:05:22.157Z,100981.03
2023-05-18T18:07:48.876Z,100989.13
2023-05-18T18:10:16.629Z,100987.19
2023-05-18T18:12:45.139Z,100973.63
2023-05-18T18:15:14.283Z,100983.50
2023-05-18T18:17:41.201Z,100990.44
2023-05-18T18:20:09.844Z,100981.88
2023-05-18T18:22:37.325Z,100991.91
2023-05-18T18:25:05.972Z,100997.78
2023-05-18T18:27:33.584Z,100996.47
2023-05-18T18:30:03.078Z,100993.72
2023-05-18T18:32:30.982Z,100991.25
2023-05-18T18:34:59.029Z,100997.91
2023-05-18T18:37:28.780Z,100994.44
2023-05-18T18:39:56.169Z,100993.53
2023-05-18T18:42:22.997Z,101000.03
2023-05-18T18:44:52.861Z,100996.75
2023-05-18T18:47:19.851Z,101002.09
2023-05-18T18:49:46.533Z,100998.03
2023-05-18T18:52:14.004Z,101008.03
2023-05-18T18:54:43.630Z,101011.81
2023-05-18T18:57:12.063Z,101014.56
2023-05-18T18:59:39.216Z,101009.16
2023-05-18T19:02:08.723Z,100997.44
2023-05-18T19:04:41.264Z,101009.69
2023-05-18T19:07:12.833Z,101019.25
2023-05-18T19:09:42.733Z,101020.38
2023-05-18T19:12:11.973Z,101021.50
2023-05-18T19:14:39.210Z,101016.81
2023-05-18T19:17:07.654Z,101019.69
2023-05-18T19:19:39.151Z,101031.72
2023-05-18T19:22:09.356Z,101028.97
2023-05-18T19:24:43.976Z,101028.44
2023-05-18T19:27:11.212Z,101028.44
2023-05-18T19:29:38.069Z,101030.72
2023-05-18T19:32:05.681Z,101029.59
2023-05-18T19:34:32.428Z,101037.84
2023-05-18T19:36:59.215Z,101035.72
2023-05-18T19:39:25.941Z,101035.72
2023-05-18T19:41:52.623Z,101038.47
2023-05-18T19:44:19.347Z,101045.59
2023-05-18T19:46:46.702Z,101040.81
2023-05-18T19:49:13.533Z,101050.09
2023-05-18T19:51:40.236Z,101048.97
2023-05-18T19:54:06.958Z,101044.41
2023-05-18T19:56:35.903Z,101049.09
2023-05-18T19:59:02.851Z,101057.56
2023-05-18T20:01:29.649Z,101055.59
2023-05-18T20:04:03.420Z,101060.50
2023-05-18T20:06:32.473Z,101049.91
2023-05-18T20:08:59.834Z,101053.66
2023-05-18T20:11:26.802Z,101051.31
2023-05-18T20:13:53.566Z,101064.19
2023-05-18T20:16:20.439Z,101061.13
2023-05-18T20:18:47.271Z,101055.41
2023-05-18T20:21:14.018Z,101060.72
2023-05-18T20:23:42.466Z,101056.03
2023-05-18T20:26:09.202Z,101059.72
2023-05-18T20:28:35.855Z,101059.59
2023-05-18T20:31:05.524Z,101066.03
2023-05-18T20:33:34.322Z,101071.34
2023-05-18T20:36:01.787Z,101058.09
2023-05-18T20:38:29.261Z,101074.19
2023-05-18T20:40:58.142Z,101077.47
2023-05-18T20:43:25.137Z,101070.94
2023-05-18T20:45:51.892Z,101070.94
2023-05-18T20:48:24.781Z,101076.94
2023-05-18T20:50:52.228Z,101074.19
2023-05-18T20:53:19.266Z,101075.84
2023-05-18T20:55:49.850Z,101076.03
2023-05-18T20:58:19.526Z,101078.69
2023-05-18T21:00:49.072Z,101069.09
2023-05-18T21:03:18.444Z,101079.31
2023-05-18T21:05:45.344Z,101076.47
2023-05-18T21:08:11.993Z,101069.63
2023-05-18T21:10:38.872Z,101073.78
2023-05-18T21:13:05.633Z,101079.31
2023-05-18T21:15:36.379Z,101077.34
2023-05-18T21:18:03.739Z,101069.09
2023-05-18T21:20:30.884Z,101069.41
2023-05-18T21:22:57.702Z,101071.84
2023-05-18T21:25:24.341Z,101068.28
2023-05-18T21:27:50.960Z,101064.31
2023-05-18T21:30:17.989Z,101073.59
2023-05-18T21:32:44.815Z,101073.59
2023-05-18T21:35:11.581Z,101086.56
2023-05-18T21:37:38.269Z,101078.81
2023-05-18T21:40:06.081Z,101072.59
2023-05-18T21:42:33.311Z,101078.28
2023-05-18T21:44:59.963Z,101071.75
2023-05-18T21:47:26.788Z,101075.00
2023-05-18T21:49:53.461Z,101072.47
2023-05-18T21:52:20.335Z,101068.69
2023-05-18T21:54:47.040Z,101078.50
2023-05-18T21:57:13.732Z,101064.13
2023-05-18T21:59:40.527Z,101083.28
2023-05-18T22:02:07.191Z,101067.88
2023-05-18T22:04:33.895Z,101075.13
2023-05-18T22:07:00.946Z,101081.13
2023-05-18T22:09:27.612Z,101084.19
2023-05-18T22:11:54.290Z,101079.00
2023-05-18T22:14:21.342Z,101080.63
2023-05-18T22:16:48.087Z,101077.88
2023-05-18T22:19:14.789Z,101079.00
2023-05-18T22:21:41.840Z,101079.31
2023-05-18T22:24:08.572Z,101076.56
2023-05-18T22:26:35.230Z,101078.69
2023-05-18T22:29:01.950Z,101076.25
2023-05-18T22:31:28.608Z,101079.50
2023-05-18T22:33:55.449Z,101076.25
2023-05-18T22:36:22.330Z,101061.53
2023-05-18T22:38:49.674Z,101072.97
2023-05-18T22:41:16.580Z,101075.78
2023-05-18T22:43:43.277Z,101071.41
2023-05-18T22:46:10.275Z,101068.66
2023-05-18T22:48:38.055Z,101068.66
2023-05-18T22:51:06.379Z,101071.13
2023-05-18T22:53:33.297Z,101070.09
2023-05-18T22:56:00.334Z,101067.03
2023-05-18T22:58:27.056Z,101070.09
2023-05-18T23:00:53.862Z,101068.16
2023-05-18T23:03:20.647Z,101068.16
2023-05-18T23:05:48.402Z,101071.13
2023-05-18T23:08:15.692Z,101066.53
2023-05-18T23:10:44.383Z,101067.66
2023-05-18T23:13:11.897Z,101078.06
2023-05-18T23:15:38.951Z,101075.31
2023-05-18T23:18:09.153Z,101073.03
2023-05-18T23:20:36.122Z,101064.97
2023-05-18T23:23:02.837Z,101064.38
2023-05-18T23:25:31.769Z,101073.97
2023-05-18T23:27:58.348Z,101063.78
2023-05-18T23:30:25.064Z,101063.78
2023-05-18T23:32:53.014Z,101071.53
2023-05-18T23:35:20.414Z,101068.78
2023-05-18T23:37:48.891Z,101056.84
2023-05-18T23:40:15.652Z,101068.34
2023-05-18T23:42:42.505Z,101067.94
2023-05-18T23:45:09.971Z,101069.06
2023-05-18T23:47:36.951Z,101069.38
2023-05-18T23:50:03.941Z,101067.72
2023-05-18T23:52:30.564Z,101058.47
2023-05-18T23:54:58.653Z,101069.47
2023-05-18T23:57:25.641Z,101062.22
2023-05-18T23:59:52.713Z,101056.31
